sensor_id;sensor_type;location;lat;lon;timestamp;pressure;altitude;pressure_sealevel;temperature;humidity
20027;BME280;10174;42.688;23.344;2023-05-11T00:00:01;95515.75;;;10.30;73.59
20027;BME280;10174;42.688;23.344;2023-05-11T00:02:26;95479.00;;;10.03;74.99
20027;BME280;10174;42.688;23.344;2023-05-11T00:04:53;95538.94;;;10.36;75.96
20027;BME280;10174;42.688;23.344;2023-05-11T00:07:18;95416.59;;;9.53;75.03
20027;BME280;10174;42.688;23.344;2023-05-11T00:09:43;95543.50;;;10.36;73.94
20027;BME280;10174;42.688;23.344;2023-05-11T00:12:09;95542.81;;;10.23;74.73
20027;BME280;10174;42.688;23.344;2023-05-11T00:14:34;95316.94;;;8.80;74.76
20027;BME280;10174;42.688;23.344;2023-05-11T00:17:00;95511.47;;;10.02;75.18
20027;BME280;10174;42.688;23.344;2023-05-11T00:19:25;95519.94;;;10.15;75.38
20027;BME280;10174;42.688;23.344;2023-05-11T00:21:51;95539.56;;;10.21;74.85
20027;BME280;10174;42.688;23.344;2023-05-11T00:24:17;95521.94;;;10.03;75.33
20027;BME280;10174;42.688;23.344;2023-05-11T00:26:42;95544.16;;;10.26;73.83
20027;BME280;10174;42.688;23.344;2023-05-11T00:29:08;95551.06;;;10.16;75.08
20027;BME280;10174;42.688;23.344;2023-05-11T00:31:33;95540.91;;;10.19;74.63
20027;BME280;10174;42.688;23.344;2023-05-11T00:33:58;95535.13;;;10.05;74.45
20027;BME280;10174;42.688;23.344;2023-05-11T00:36:24;95528.44;;;10.07;74.72
20027;BME280;10174;42.688;23.344;2023-05-11T00:38:50;95553.31;;;10.25;73.51
20027;BME280;10174;42.688;23.344;2023-05-11T00:41:16;95544.66;;;10.18;74.59
20027;BME280;10174;42.688;23.344;2023-05-11T00:43:42;95540.19;;;10.01;74.59
20027;BME280;10174;42.688;23.344;2023-05-11T00:46:07;95441.38;;;9.38;74.32
20027;BME280;10174;42.688;23.344;2023-05-11T00:48:33;95523.91;;;9.80;74.93
20027;BME280;10174;42.688;23.344;2023-05-11T00:50:59;95536.22;;;9.81;74.49
20027;BME280;10174;42.688;23.344;2023-05-11T00:53:24;95542.72;;;9.86;74.17
20027;BME280;10174;42.688;23.344;2023-05-11T00:55:50;95528.75;;;9.84;73.44
20027;BME280;10174;42.688;23.344;2023-05-11T00:58:16;95549.81;;;9.97;74.07
20027;BME280;10174;42.688;23.344;2023-05-11T01:00:42;95528.94;;;9.77;73.90
20027;BME280;10174;42.688;23.344;2023-05-11T01:03:08;95547.69;;;9.99;72.61
20027;BME280;10174;42.688;23.344;2023-05-11T01:05:46;95422.53;;;9.06;73.81
20027;BME280;10174;42.688;23.344;2023-05-11T01:08:31;95445.91;;;9.11;74.34
20027;BME280;10174;42.688;23.344;2023-05-11T01:14:02;95552.84;;;9.78;74.68
20027;BME280;10174;42.688;23.344;2023-05-11T01:16:21;95525.78;;;9.58;74.67
20027;BME280;10174;42.688;23.344;2023-05-11T01:19:05;95548.09;;;9.86;74.29
20027;BME280;10174;42.688;23.344;2023-05-11T01:21:32;95538.88;;;9.76;73.74
20027;BME280;10174;42.688;23.344;2023-05-11T01:32:19;95548.97;;;9.69;73.50
20027;BME280;10174;42.688;23.344;2023-05-11T01:34:47;95549.81;;;9.70;73.84
20027;BME280;10174;42.688;23.344;2023-05-11T01:37:21;95543.63;;;9.69;73.18
20027;BME280;10174;42.688;23.344;2023-05-11T01:39:52;95554.69;;;9.73;74.60
20027;BME280;10174;42.688;23.344;2023-05-11T01:42:31;95562.41;;;9.69;73.41
20027;BME280;10174;42.688;23.344;2023-05-11T01:44:58;95439.59;;;9.00;73.49
20027;BME280;10174;42.688;23.344;2023-05-11T01:47:27;95525.66;;;9.48;74.65
20027;BME280;10174;42.688;23.344;2023-05-11T01:49:55;95541.06;;;9.57;74.55
20027;BME280;10174;42.688;23.344;2023-05-11T01:52:24;95549.69;;;9.59;74.42
20027;BME280;10174;42.688;23.344;2023-05-11T01:54:51;95560.22;;;9.66;75.20
20027;BME280;10174;42.688;23.344;2023-05-11T01:57:20;95568.34;;;9.71;75.19
20027;BME280;10174;42.688;23.344;2023-05-11T01:59:46;95564.31;;;9.74;74.57
20027;BME280;10174;42.688;23.344;2023-05-11T02:02:13;95545.06;;;9.55;74.92
20027;BME280;10174;42.688;23.344;2023-05-11T02:04:39;95450.94;;;9.07;73.28
20027;BME280;10174;42.688;23.344;2023-05-11T02:07:07;95541.50;;;9.71;73.69
20027;BME280;10174;42.688;23.344;2023-05-11T02:09:35;95563.53;;;9.73;73.45
20027;BME280;10174;42.688;23.344;2023-05-11T02:12:02;95523.03;;;9.53;72.98
20027;BME280;10174;42.688;23.344;2023-05-11T02:14:30;95559.16;;;9.67;73.90
20027;BME280;10174;42.688;23.344;2023-05-11T02:16:59;95556.34;;;9.57;74.08
20027;BME280;10174;42.688;23.344;2023-05-11T02:19:27;95547.75;;;9.55;74.00
20027;BME280;10174;42.688;23.344;2023-05-11T02:21:54;95545.69;;;9.62;72.32
20027;BME280;10174;42.688;23.344;2023-05-11T02:24:22;95528.91;;;9.50;72.69
20027;BME280;10174;42.688;23.344;2023-05-11T02:26:48;95557.03;;;9.69;72.76
20027;BME280;10174;42.688;23.344;2023-05-11T02:29:13;95548.69;;;9.66;72.96
20027;BME280;10174;42.688;23.344;2023-05-11T02:31:43;95538.81;;;9.49;74.17
20027;BME280;10174;42.688;23.344;2023-05-11T02:34:18;95542.06;;;9.51;75.29
20027;BME280;10174;42.688;23.344;2023-05-11T02:36:47;95539.59;;;9.44;74.00
20027;BME280;10174;42.688;23.344;2023-05-11T02:39:16;95438.53;;;8.79;74.51
20027;BME280;10174;42.688;23.344;2023-05-11T02:41:46;95561.22;;;9.60;73.90
20027;BME280;10174;42.688;23.344;2023-05-11T02:44:15;95557.84;;;9.48;74.12
20027;BME280;10174;42.688;23.344;2023-05-11T02:46:42;95560.78;;;9.46;73.68
20027;BME280;10174;42.688;23.344;2023-05-11T02:49:11;95562.66;;;9.45;73.78
20027;BME280;10174;42.688;23.344;2023-05-11T02:51:38;95550.84;;;9.47;74.24
20027;BME280;10174;42.688;23.344;2023-05-11T02:54:06;95550.81;;;9.41;75.14
20027;BME280;10174;42.688;23.344;2023-05-11T02:56:35;95548.63;;;9.38;73.89
20027;BME280;10174;42.688;23.344;2023-05-11T02:59:01;95554.75;;;9.34;74.98
20027;BME280;10174;42.688;23.344;2023-05-11T03:01:27;95542.81;;;9.24;75.59
20027;BME280;10174;42.688;23.344;2023-05-11T03:03:53;95548.81;;;9.32;75.05
20027;BME280;10174;42.688;23.344;2023-05-11T03:06:18;95542.63;;;9.31;74.52
20027;BME280;10174;42.688;23.344;2023-05-11T03:08:44;95443.09;;;8.61;75.42
20027;BME280;10174;42.688;23.344;2023-05-11T03:11:10;95507.47;;;9.05;75.88
20027;BME280;10174;42.688;23.344;2023-05-11T03:13:40;95530.66;;;9.17;75.45
20027;BME280;10174;42.688;23.344;2023-05-11T03:16:06;95530.53;;;9.06;75.27
20027;BME280;10174;42.688;23.344;2023-05-11T03:18:34;95538.16;;;9.15;76.68
20027;BME280;10174;42.688;23.344;2023-05-11T03:21:00;95549.31;;;9.29;75.67
20027;BME280;10174;42.688;23.344;2023-05-11T03:23:27;95422.63;;;8.50;74.23
20027;BME280;10174;42.688;23.344;2023-05-11T03:25:53;95548.69;;;9.21;76.65
20027;BME280;10174;42.688;23.344;2023-05-11T03:28:21;95229.03;;;7.27;75.09
20027;BME280;10174;42.688;23.344;2023-05-11T03:30:48;95559.34;;;9.38;73.35
20027;BME280;10174;42.688;23.344;2023-05-11T03:33:14;95568.34;;;9.27;74.53
20027;BME280;10174;42.688;23.344;2023-05-11T03:35:40;95439.25;;;8.52;74.87
20027;BME280;10174;42.688;23.344;2023-05-11T03:38:08;95543.56;;;9.20;74.60
20027;BME280;10174;42.688;23.344;2023-05-11T03:40:36;95538.22;;;9.20;75.62
20027;BME280;10174;42.688;23.344;2023-05-11T03:43:03;95533.91;;;9.19;75.79
20027;BME280;10174;42.688;23.344;2023-05-11T03:45:30;95364.16;;;8.08;74.12
20027;BME280;10174;42.688;23.344;2023-05-11T03:47:58;95528.72;;;9.12;75.50
20027;BME280;10174;42.688;23.344;2023-05-11T03:50:24;95569.09;;;9.44;74.17
20027;BME280;10174;42.688;23.344;2023-05-11T03:52:51;95553.75;;;9.18;74.91
20027;BME280;10174;42.688;23.344;2023-05-11T03:55:16;95445.19;;;8.54;75.39
20027;BME280;10174;42.688;23.344;2023-05-11T03:57:42;95569.38;;;9.26;75.25
20027;BME280;10174;42.688;23.344;2023-05-11T04:00:09;95562.53;;;9.35;74.31
20027;BME280;10174;42.688;23.344;2023-05-11T04:02:35;95558.66;;;9.26;76.17
20027;BME280;10174;42.688;23.344;2023-05-11T04:05:06;95570.28;;;9.32;76.68
20027;BME280;10174;42.688;23.344;2023-05-11T04:07:32;95540.75;;;9.09;75.51
20027;BME280;10174;42.688;23.344;2023-05-11T04:09:57;95576.53;;;9.20;76.93
20027;BME280;10174;42.688;23.344;2023-05-11T04:12:22;95565.69;;;9.10;76.84
20027;BME280;10174;42.688;23.344;2023-05-11T04:14:48;95572.72;;;9.33;75.61
20027;BME280;10174;42.688;23.344;2023-05-11T04:17:13;95554.41;;;9.08;76.73
20027;BME280;10174;42.688;23.344;2023-05-11T04:19:39;95581.66;;;9.22;77.29
20027;BME280;10174;42.688;23.344;2023-05-11T04:22:04;95533.50;;;8.88;77.91
20027;BME280;10174;42.688;23.344;2023-05-11T04:24:30;95552.47;;;9.03;77.84
20027;BME280;10174;42.688;23.344;2023-05-11T04:26:55;95576.53;;;9.20;77.95
20027;BME280;10174;42.688;23.344;2023-05-11T04:29:21;95560.84;;;9.29;76.57
20027;BME280;10174;42.688;23.344;2023-05-11T04:31:47;95579.38;;;9.31;76.95
20027;BME280;10174;42.688;23.344;2023-05-11T04:34:12;95458.38;;;8.61;76.92
20027;BME280;10174;42.688;23.344;2023-05-11T04:36:37;95541.88;;;9.14;76.07
20027;BME280;10174;42.688;23.344;2023-05-11T04:39:03;95591.31;;;9.62;75.32
20027;BME280;10174;42.688;23.344;2023-05-11T04:41:28;95516.06;;;9.07;76.10
20027;BME280;10174;42.688;23.344;2023-05-11T04:43:54;95595.34;;;9.42;78.67
20027;BME280;10174;42.688;23.344;2023-05-11T04:46:19;95560.22;;;9.22;78.54
20027;BME280;10174;42.688;23.344;2023-05-11T04:48:45;95590.34;;;9.29;78.20
20027;BME280;10174;42.688;23.344;2023-05-11T04:51:10;95596.41;;;9.41;78.33
20027;BME280;10174;42.688;23.344;2023-05-11T04:53:36;95586.81;;;9.45;79.04
20027;BME280;10174;42.688;23.344;2023-05-11T04:56:01;95587.81;;;9.39;77.21
20027;BME280;10174;42.688;23.344;2023-05-11T04:58:26;95557.88;;;9.25;79.24
20027;BME280;10174;42.688;23.344;2023-05-11T05:00:52;95573.81;;;9.37;78.31
20027;BME280;10174;42.688;23.344;2023-05-11T05:03:17;95578.38;;;9.37;78.19
20027;BME280;10174;42.688;23.344;2023-05-11T05:05:42;95588.50;;;9.52;76.46
20027;BME280;10174;42.688;23.344;2023-05-11T05:08:08;95564.47;;;9.18;78.60
20027;BME280;10174;42.688;23.344;2023-05-11T05:10:33;95597.28;;;9.47;78.83
20027;BME280;10174;42.688;23.344;2023-05-11T05:12:59;95595.59;;;9.41;78.70
20027;BME280;10174;42.688;23.344;2023-05-11T05:15:24;95598.88;;;9.48;77.46
20027;BME280;10174;42.688;23.344;2023-05-11T05:17:49;95587.09;;;9.49;77.83
20027;BME280;10174;42.688;23.344;2023-05-11T05:20:15;95592.84;;;9.58;75.69
20027;BME280;10174;42.688;23.344;2023-05-11T05:22:40;95532.81;;;8.98;78.09
20027;BME280;10174;42.688;23.344;2023-05-11T05:25:07;95576.44;;;9.32;77.94
20027;BME280;10174;42.688;23.344;2023-05-11T05:27:32;95441.59;;;8.48;77.93
20027;BME280;10174;42.688;23.344;2023-05-11T05:29:57;95500.84;;;8.91;77.97
20027;BME280;10174;42.688;23.344;2023-05-11T05:32:23;95596.19;;;9.48;78.24
20027;BME280;10174;42.688;23.344;2023-05-11T05:34:49;95610.78;;;9.57;76.94
20027;BME280;10174;42.688;23.344;2023-05-11T05:37:14;95595.91;;;9.44;77.57
20027;BME280;10174;42.688;23.344;2023-05-11T05:39:40;95589.91;;;9.37;78.25
20027;BME280;10174;42.688;23.344;2023-05-11T05:42:05;95518.06;;;8.95;77.51
20027;BME280;10174;42.688;23.344;2023-05-11T05:44:31;95617.53;;;9.60;77.17
20027;BME280;10174;42.688;23.344;2023-05-11T05:46:56;95602.03;;;9.62;75.99
20027;BME280;10174;42.688;23.344;2023-05-11T05:49:22;95510.09;;;9.00;75.97
20027;BME280;10174;42.688;23.344;2023-05-11T05:51:47;95581.44;;;9.45;76.93
20027;BME280;10174;42.688;23.344;2023-05-11T05:54:14;95627.78;;;9.63;76.39
20027;BME280;10174;42.688;23.344;2023-05-11T05:56:40;95628.16;;;9.72;75.60
20027;BME280;10174;42.688;23.344;2023-05-11T05:59:06;95633.03;;;9.75;77.33
20027;BME280;10174;42.688;23.344;2023-05-11T06:01:35;95627.91;;;9.73;76.83
20027;BME280;10174;42.688;23.344;2023-05-11T06:04:01;95612.50;;;9.63;76.42
20027;BME280;10174;42.688;23.344;2023-05-11T06:06:27;95634.81;;;9.69;77.36
20027;BME280;10174;42.688;23.344;2023-05-11T06:08:53;95571.88;;;9.33;77.29
20027;BME280;10174;42.688;23.344;2023-05-11T06:11:18;95635.41;;;9.71;77.98
20027;BME280;10174;42.688;23.344;2023-05-11T06:13:43;95632.28;;;9.79;76.40
20027;BME280;10174;42.688;23.344;2023-05-11T06:16:09;95632.34;;;9.62;77.43
20027;BME280;10174;42.688;23.344;2023-05-11T06:18:34;95642.13;;;9.74;77.93
20027;BME280;10174;42.688;23.344;2023-05-11T06:21:00;95640.47;;;9.90;76.46
20027;BME280;10174;42.688;23.344;2023-05-11T06:23:25;95634.03;;;9.69;76.96
20027;BME280;10174;42.688;23.344;2023-05-11T06:25:51;95500.91;;;8.96;76.86
20027;BME280;10174;42.688;23.344;2023-05-11T06:28:16;95625.41;;;9.89;75.40
20027;BME280;10174;42.688;23.344;2023-05-11T06:30:42;95633.97;;;9.86;76.23
20027;BME280;10174;42.688;23.344;2023-05-11T06:33:07;95654.63;;;9.85;76.71
20027;BME280;10174;42.688;23.344;2023-05-11T06:35:35;95530.97;;;9.20;75.57
20027;BME280;10174;42.688;23.344;2023-05-11T06:38:01;95647.44;;;9.91;75.16
20027;BME280;10174;42.688;23.344;2023-05-11T06:40:26;95660.28;;;9.89;76.12
20027;BME280;10174;42.688;23.344;2023-05-11T06:42:51;95657.50;;;10.01;74.99
20027;BME280;10174;42.688;23.344;2023-05-11T06:45:17;95660.72;;;10.03;74.26
20027;BME280;10174;42.688;23.344;2023-05-11T06:47:42;95617.19;;;9.73;75.40
20027;BME280;10174;42.688;23.344;2023-05-11T06:50:08;95653.47;;;10.03;75.43
20027;BME280;10174;42.688;23.344;2023-05-11T06:52:34;95649.19;;;10.02;74.71
20027;BME280;10174;42.688;23.344;2023-05-11T06:55:00;95644.84;;;10.23;73.35
20027;BME280;10174;42.688;23.344;2023-05-11T06:57:25;95656.16;;;10.03;75.87
20027;BME280;10174;42.688;23.344;2023-05-11T06:59:51;95649.31;;;10.12;75.18
20027;BME280;10174;42.688;23.344;2023-05-11T07:02:16;95653.25;;;10.32;75.06
20027;BME280;10174;42.688;23.344;2023-05-11T07:04:41;95634.91;;;10.24;74.10
20027;BME280;10174;42.688;23.344;2023-05-11T07:07:07;95524.66;;;9.54;73.40
20027;BME280;10174;42.688;23.344;2023-05-11T07:09:35;95622.81;;;10.48;71.24
20027;BME280;10174;42.688;23.344;2023-05-11T07:12:00;95628.84;;;10.61;71.81
20027;BME280;10174;42.688;23.344;2023-05-11T07:14:26;95628.94;;;10.71;71.04
20027;BME280;10174;42.688;23.344;2023-05-11T07:16:52;95636.97;;;10.66;71.48
20027;BME280;10174;42.688;23.344;2023-05-11T07:19:17;95656.75;;;11.19;68.45
20027;BME280;10174;42.688;23.344;2023-05-11T07:21:43;95655.81;;;11.03;70.75
20027;BME280;10174;42.688;23.344;2023-05-11T07:24:08;95646.56;;;10.89;71.51
20027;BME280;10174;42.688;23.344;2023-05-11T07:26:34;95650.91;;;11.33;69.50
20027;BME280;10174;42.688;23.344;2023-05-11T07:28:59;95646.56;;;11.27;68.77
20027;BME280;10174;42.688;23.344;2023-05-11T07:31:24;95649.28;;;11.32;67.74
20027;BME280;10174;42.688;23.344;2023-05-11T07:33:50;95641.78;;;11.39;68.41
20027;BME280;10174;42.688;23.344;2023-05-11T07:36:15;95508.72;;;10.94;65.53
20027;BME280;10174;42.688;23.344;2023-05-11T07:38:41;95659.84;;;11.91;66.97
20027;BME280;10174;42.688;23.344;2023-05-11T07:41:06;95616.66;;;11.66;66.35
20027;BME280;10174;42.688;23.344;2023-05-11T07:43:31;95453.44;;;11.23;65.48
20027;BME280;10174;42.688;23.344;2023-05-11T07:45:57;95656.84;;;12.77;64.04
20027;BME280;10174;42.688;23.344;2023-05-11T07:48:22;95646.34;;;13.06;61.66
20027;BME280;10174;42.688;23.344;2023-05-11T07:50:48;95657.13;;;13.22;62.43
20027;BME280;10174;42.688;23.344;2023-05-11T07:53:16;95653.53;;;13.72;59.99
20027;BME280;10174;42.688;23.344;2023-05-11T07:55:41;95653.25;;;13.74;59.36
20027;BME280;10174;42.688;23.344;2023-05-11T07:58:07;95639.28;;;14.27;56.61
20027;BME280;10174;42.688;23.344;2023-05-11T08:00:32;95667.41;;;14.21;58.17
20027;BME280;10174;42.688;23.344;2023-05-11T08:02:58;95548.09;;;13.48;58.60
20027;BME280;10174;42.688;23.344;2023-05-11T08:05:24;95557.09;;;13.88;57.35
20027;BME280;10174;42.688;23.344;2023-05-11T08:07:49;95653.91;;;14.21;57.86
20027;BME280;10174;42.688;23.344;2023-05-11T08:10:14;95656.56;;;14.26;57.09
20027;BME280;10174;42.688;23.344;2023-05-11T08:12:40;95641.06;;;13.97;57.10
20027;BME280;10174;42.688;23.344;2023-05-11T08:15:06;95600.56;;;13.87;57.43
20027;BME280;10174;42.688;23.344;2023-05-11T08:17:31;95636.72;;;14.51;55.16
20027;BME280;10174;42.688;23.344;2023-05-11T08:19:57;95646.78;;;14.35;57.10
20027;BME280;10174;42.688;23.344;2023-05-11T08:22:22;95656.00;;;14.34;57.14
20027;BME280;10174;42.688;23.344;2023-05-11T08:24:48;95617.03;;;14.40;55.75
20027;BME280;10174;42.688;23.344;2023-05-11T08:27:15;95636.16;;;14.94;55.08
20027;BME280;10174;42.688;23.344;2023-05-11T08:29:40;95647.19;;;15.61;53.52
20027;BME280;10174;42.688;23.344;2023-05-11T08:32:05;95640.50;;;15.54;53.42
20027;BME280;10174;42.688;23.344;2023-05-11T08:34:31;95536.41;;;15.17;52.54
20027;BME280;10174;42.688;23.344;2023-05-11T08:36:56;95651.72;;;16.19;50.67
20027;BME280;10174;42.688;23.344;2023-05-11T08:39:25;95628.47;;;16.13;49.39
20027;BME280;10174;42.688;23.344;2023-05-11T08:41:52;95655.25;;;15.96;52.23
20027;BME280;10174;42.688;23.344;2023-05-11T08:44:18;95576.56;;;15.04;52.59
20027;BME280;10174;42.688;23.344;2023-05-11T08:46:45;95655.09;;;15.58;51.88
20027;BME280;10174;42.688;23.344;2023-05-11T08:49:12;95559.72;;;14.83;52.66
20027;BME280;10174;42.688;23.344;2023-05-11T08:51:39;95626.56;;;14.77;55.93
20027;BME280;10174;42.688;23.344;2023-05-11T08:54:04;95640.66;;;15.38;52.28
20027;BME280;10174;42.688;23.344;2023-05-11T08:56:33;95447.72;;;13.91;53.62
20027;BME280;10174;42.688;23.344;2023-05-11T08:58:59;95656.28;;;15.17;53.66
20027;BME280;10174;42.688;23.344;2023-05-11T09:01:27;95633.22;;;16.02;51.02
20027;BME280;10174;42.688;23.344;2023-05-11T09:03:53;95613.47;;;15.73;50.71
20027;BME280;10174;42.688;23.344;2023-05-11T09:06:22;95617.88;;;15.68;51.94
20027;BME280;10174;42.688;23.344;2023-05-11T09:08:48;95628.34;;;15.75;51.73
20027;BME280;10174;42.688;23.344;2023-05-11T09:11:14;95623.19;;;15.55;53.20
20027;BME280;10174;42.688;23.344;2023-05-11T09:13:40;95635.25;;;15.38;54.20
20027;BME280;10174;42.688;23.344;2023-05-11T09:16:05;95621.03;;;15.52;52.49
20027;BME280;10174;42.688;23.344;2023-05-11T09:18:30;95641.31;;;15.83;52.83
20027;BME280;10174;42.688;23.344;2023-05-11T09:20:58;95628.34;;;15.51;53.37
20027;BME280;10174;42.688;23.344;2023-05-11T09:23:25;95626.72;;;15.79;52.79
20027;BME280;10174;42.688;23.344;2023-05-11T09:25:51;95651.22;;;15.93;52.89
20027;BME280;10174;42.688;23.344;2023-05-11T09:28:20;95562.47;;;15.85;51.35
20027;BME280;10174;42.688;23.344;2023-05-11T09:30:46;95639.91;;;16.10;52.33
20027;BME280;10174;42.688;23.344;2023-05-11T09:33:20;95650.94;;;16.38;50.55
20027;BME280;10174;42.688;23.344;2023-05-11T09:35:47;95626.91;;;16.69;50.41
20027;BME280;10174;42.688;23.344;2023-05-11T09:38:12;95643.97;;;16.32;51.29
20027;BME280;10174;42.688;23.344;2023-05-11T09:40:59;95646.56;;;16.18;51.35
20027;BME280;10174;42.688;23.344;2023-05-11T09:43:29;95637.72;;;15.35;54.09
20027;BME280;10174;42.688;23.344;2023-05-11T09:45:57;95633.53;;;14.84;55.67
20027;BME280;10174;42.688;23.344;2023-05-11T09:48:29;95644.81;;;14.96;56.24
20027;BME280;10174;42.688;23.344;2023-05-11T09:51:06;95631.06;;;14.48;56.88
20027;BME280;10174;42.688;23.344;2023-05-11T09:53:44;95640.69;;;15.04;55.82
20027;BME280;10174;42.688;23.344;2023-05-11T09:56:11;95636.78;;;14.86;56.17
20027;BME280;10174;42.688;23.344;2023-05-11T09:58:50;95617.84;;;14.86;56.35
20027;BME280;10174;42.688;23.344;2023-05-11T10:01:18;95624.09;;;16.17;52.57
20027;BME280;10174;42.688;23.344;2023-05-11T10:03:51;95621.41;;;16.36;50.22
20027;BME280;10174;42.688;23.344;2023-05-11T10:06:20;95606.13;;;16.02;53.04
20027;BME280;10174;42.688;23.344;2023-05-11T10:08:46;95622.06;;;16.47;51.50
20027;BME280;10174;42.688;23.344;2023-05-11T10:11:11;95619.75;;;15.68;54.17
20027;BME280;10174;42.688;23.344;2023-05-11T10:13:37;95622.22;;;15.40;54.23
20027;BME280;10174;42.688;23.344;2023-05-11T10:16:04;95608.50;;;15.02;55.84
20027;BME280;10174;42.688;23.344;2023-05-11T10:18:31;95605.78;;;15.31;54.99
20027;BME280;10174;42.688;23.344;2023-05-11T10:20:57;95606.75;;;15.70;53.85
20027;BME280;10174;42.688;23.344;2023-05-11T10:23:24;95604.50;;;15.53;55.10
20027;BME280;10174;42.688;23.344;2023-05-11T10:25:51;95499.31;;;14.93;53.95
20027;BME280;10174;42.688;23.344;2023-05-11T10:28:17;95520.63;;;15.24;52.81
20027;BME280;10174;42.688;23.344;2023-05-11T10:30:42;95597.72;;;16.04;51.25
20027;BME280;10174;42.688;23.344;2023-05-11T10:33:09;95520.00;;;15.56;51.33
20027;BME280;10174;42.688;23.344;2023-05-11T10:35:36;95604.69;;;15.86;54.00
20027;BME280;10174;42.688;23.344;2023-05-11T10:38:02;95585.03;;;16.56;49.60
20027;BME280;10174;42.688;23.344;2023-05-11T10:40:28;95578.09;;;16.50;51.69
20027;BME280;10174;42.688;23.344;2023-05-11T11:01:35;95588.28;;;18.13;46.51
20027;BME280;10174;42.688;23.344;2023-05-11T11:04:03;95484.06;;;17.25;47.65
20027;BME280;10174;42.688;23.344;2023-05-11T11:06:30;95545.22;;;16.71;50.70
20027;BME280;10174;42.688;23.344;2023-05-11T11:08:57;95576.84;;;16.43;51.03
20027;BME280;10174;42.688;23.344;2023-05-11T11:11:38;95584.81;;;16.72;50.14
20027;BME280;10174;42.688;23.344;2023-05-11T11:14:06;95505.72;;;15.94;51.40
20027;BME280;10174;42.688;23.344;2023-05-11T11:16:34;95583.69;;;16.40;51.71
20027;BME280;10174;42.688;23.344;2023-05-11T11:21:54;95558.25;;;16.69;49.84
20027;BME280;10174;42.688;23.344;2023-05-11T11:27:00;95450.31;;;16.05;49.87
20027;BME280;10174;42.688;23.344;2023-05-11T11:29:27;95566.06;;;17.22;48.06
20027;BME280;10174;42.688;23.344;2023-05-11T11:31:53;95554.44;;;16.18;51.78
20027;BME280;10174;42.688;23.344;2023-05-11T11:39:24;95569.63;;;16.90;49.66
20027;BME280;10174;42.688;23.344;2023-05-11T11:42:04;95556.34;;;16.88;50.12
20027;BME280;10174;42.688;23.344;2023-05-11T11:44:29;95562.66;;;17.03;49.63
20027;BME280;10174;42.688;23.344;2023-05-11T11:49:37;95542.63;;;16.28;51.57
20027;BME280;10174;42.688;23.344;2023-05-11T11:52:04;95527.78;;;16.25;51.53
20027;BME280;10174;42.688;23.344;2023-05-11T11:57:03;95564.31;;;16.28;51.71
20027;BME280;10174;42.688;23.344;2023-05-11T11:59:29;95563.16;;;16.34;51.46
20027;BME280;10174;42.688;23.344;2023-05-11T12:01:55;95564.16;;;16.00;52.86
20027;BME280;10174;42.688;23.344;2023-05-11T12:06:58;95557.47;;;15.92;53.92
20027;BME280;10174;42.688;23.344;2023-05-11T12:09:24;95567.63;;;15.81;53.54
20027;BME280;10174;42.688;23.344;2023-05-11T12:11:51;95556.06;;;16.19;52.40
20027;BME280;10174;42.688;23.344;2023-05-11T12:14:16;95448.97;;;15.40;52.54
20027;BME280;10174;42.688;23.344;2023-05-11T12:16:42;95527.19;;;15.66;51.85
20027;BME280;10174;42.688;23.344;2023-05-11T12:19:07;95551.97;;;15.78;52.18
20027;BME280;10174;42.688;23.344;2023-05-11T12:21:33;95534.00;;;15.15;52.68
20027;BME280;10174;42.688;23.344;2023-05-11T12:24:01;95536.16;;;15.13;54.80
20027;BME280;10174;42.688;23.344;2023-05-11T12:26:28;95550.34;;;15.29;54.84
20027;BME280;10174;42.688;23.344;2023-05-11T12:29:11;95534.41;;;15.52;54.16
20027;BME280;10174;42.688;23.344;2023-05-11T12:31:38;95481.03;;;15.09;54.58
20027;BME280;10174;42.688;23.344;2023-05-11T12:34:04;95538.81;;;15.66;52.94
20027;BME280;10174;42.688;23.344;2023-05-11T12:36:30;95513.25;;;15.97;51.56
20027;BME280;10174;42.688;23.344;2023-05-11T12:38:56;95526.22;;;15.76;53.50
20027;BME280;10174;42.688;23.344;2023-05-11T12:41:22;95525.94;;;15.82;52.20
20027;BME280;10174;42.688;23.344;2023-05-11T12:43:49;95516.47;;;15.80;53.37
20027;BME280;10174;42.688;23.344;2023-05-11T12:46:16;95509.47;;;15.98;51.92
20027;BME280;10174;42.688;23.344;2023-05-11T12:48:44;95383.63;;;15.09;52.21
20027;BME280;10174;42.688;23.344;2023-05-11T12:51:09;95401.03;;;14.78;53.69
20027;BME280;10174;42.688;23.344;2023-05-11T12:53:35;95507.19;;;15.62;53.41
20027;BME280;10174;42.688;23.344;2023-05-11T12:56:01;95492.66;;;15.09;53.94
20027;BME280;10174;42.688;23.344;2023-05-11T12:58:39;95509.41;;;15.36;54.49
20027;BME280;10174;42.688;23.344;2023-05-11T13:01:05;95501.41;;;15.01;55.71
20027;BME280;10174;42.688;23.344;2023-05-11T13:03:33;95508.31;;;15.12;53.98
20027;BME280;10174;42.688;23.344;2023-05-11T13:06:10;95437.72;;;14.85;53.12
20027;BME280;10174;42.688;23.344;2023-05-11T13:08:36;95492.66;;;15.09;53.72
20027;BME280;10174;42.688;23.344;2023-05-11T13:11:22;95479.19;;;15.04;52.77
20027;BME280;10174;42.688;23.344;2023-05-11T13:13:50;95486.75;;;15.02;54.19
20027;BME280;10174;42.688;23.344;2023-05-11T13:19:02;95489.94;;;15.09;53.94
20027;BME280;10174;42.688;23.344;2023-05-11T13:21:28;95405.19;;;14.36;54.13
20027;BME280;10174;42.688;23.344;2023-05-11T13:23:54;95496.69;;;15.12;53.99
20027;BME280;10174;42.688;23.344;2023-05-11T13:26:24;95494.03;;;15.31;52.99
20027;BME280;10174;42.688;23.344;2023-05-11T13:28:50;95466.16;;;15.06;54.21
20027;BME280;10174;42.688;23.344;2023-05-11T13:31:16;95470.22;;;14.79;55.62
20027;BME280;10174;42.688;23.344;2023-05-11T13:33:46;95490.69;;;14.91;56.07
20027;BME280;10174;42.688;23.344;2023-05-11T13:36:14;95487.69;;;15.17;54.47
20027;BME280;10174;42.688;23.344;2023-05-11T13:38:39;95484.75;;;15.13;54.23
20027;BME280;10174;42.688;23.344;2023-05-11T13:41:05;95481.47;;;15.40;52.84
20027;BME280;10174;42.688;23.344;2023-05-11T13:43:31;95490.78;;;15.53;52.94